Latest Coastal Weather Observations for Parndana

IDS60701

Issued at 2:01 am CST Friday 27 May 2016 (issued every 10 minutes, with the page automatically refreshed every 10 minutes)

About coastal observations | Map of coastal stations | Coastal observations for SA | Marine services | Other Formats
Station Details ID: 022843 Name: PARNDANA CFS AWS Lat: -35.79 Lon: 137.25 Height: 165.0 m
Data from the previous 72 hours. | See also: Recent months at Parndana
Date/Time
CST
Temp

°C
Wind Pressure Rain
since 9am
mm
Weather Cloud Vis
km
Sea
Height
m
Swell
Dir
 
Speed
knots
Gust
knots
hPa Trend Height
m
Period
s
Dir
27/02:00am 10.7 N 4 5 - - 0.0 - - - - - - -
27/01:30am 9.7 N 5 6 - - 0.0 - - - - - - -
27/01:00am 8.2 N 5 6 - - 0.0 - - - - - - -
27/12:30am 9.2 NNW 7 8 - - 0.0 - - - - - - -
27/12:00am 8.1 NNW 3 4 - - 0.0 - - - - - - -
 
Date/Time
CST
Temp

°C
Wind Pressure Rain
since 9am
mm
Weather Cloud Vis
km
Sea
Height
m
Swell
Dir
 
Speed
knots
Gust
knots
hPa Trend Height
m
Period
s
Dir
26/11:30pm 8.0 NNW 5 7 - - 0.0 - - - - - - -
26/11:00pm 7.1 NNW 4 5 - - 0.0 - - - - - - -
26/10:30pm 8.1 W 4 4 - - 0.0 - - - - - - -
26/10:00pm 7.6 NNW 4 5 - - 0.0 - - - - - - -
26/09:30pm 8.0 NW 3 4 - - 0.0 - - - - - - -
26/09:00pm 7.5 NW 2 3 - - 0.0 - - - - - - -
26/08:30pm 8.2 WNW 4 4 - - 0.0 - - - - - - -
26/08:00pm 8.5 WNW 5 6 - - 0.0 - - - - - - -
26/07:30pm 8.9 W 4 5 - - 0.0 - - - - - - -
26/07:00pm 9.4 WNW 5 5 - - 0.0 - - - - - - -
26/06:30pm 10.2 W 1 2 - - 0.0 - - - - - - -
26/06:00pm 10.2 W 3 4 - - 0.0 - - - - - - -
26/05:30pm 10.7 W 5 5 - - 0.0 - - - - - - -
26/05:00pm 12.2 W 5 6 - - 0.0 - - - - - - -
26/04:30pm 13.0 W 5 6 - - 0.0 - - - - - - -
26/04:00pm 14.0 W 7 9 - - 0.0 - - - - - - -
26/03:30pm 13.9 W 12 16 - - 0.0 - - - - - - -
26/03:00pm 15.1 WNW 8 12 - - 0.0 - - - - - - -
26/02:30pm 13.5 W 8 10 - - 0.0 - - - - - - -
26/02:00pm 15.0 W 8 10 - - 0.0 - - - - - - -
26/01:30pm 14.0 W 11 15 - - 0.0 - - - - - - -
26/01:00pm 15.3 W 9 12 - - 0.0 - - - - - - -
26/12:30pm 15.1 WSW 10 14 - - 0.0 - - - - - - -
26/12:00pm 14.6 WSW 11 14 - - 0.0 - - - - - - -
26/11:30am 14.8 WSW 10 12 - - 0.0 - - - - - - -
26/11:00am 14.4 WSW 10 14 - - 0.0 - - - - - - -
26/10:30am 14.1 WSW 10 13 - - 0.0 - - - - - - -
26/10:00am 13.5 SW 8 11 - - 0.0 - - - - - - -
26/09:30am 12.7 WSW 7 9 - - 0.0 - - - - - - -
26/09:00am 11.8 WSW 6 8 - - 0.0 - - - - - - -
26/08:30am 10.3 W 6 7 - - 0.0 - - - - - - -
26/08:00am 8.3 W 6 6 - - 0.0 - - - - - - -
26/07:30am 8.8 WSW 6 7 - - 0.0 - - - - - - -
26/07:00am 9.1 WSW 6 8 - - 0.0 - - - - - - -
26/06:30am 9.0 W 6 7 - - 0.0 - - - - - - -
26/06:00am 8.1 W 6 7 - - 0.0 - - - - - - -
26/05:30am 7.9 W 6 7 - - 0.0 - - - - - - -
26/05:00am 7.7 WSW 5 6 - - 0.0 - - - - - - -
26/04:30am 8.3 WSW 4 5 - - 0.0 - - - - - - -
26/04:00am 10.3 SSW 7 10 - - 0.0 - - - - - - -
26/03:30am 10.7 WSW 7 8 - - 0.0 - - - - - - -
26/03:00am 10.6 WSW 6 8 - - 0.0 - - - - - - -
26/02:30am 10.1 WSW 4 5 - - 0.0 - - - - - - -
26/02:00am 10.4 SW 5 6 - - 0.0 - - - - - - -
26/01:30am 10.8 SW 6 7 - - 0.0 - - - - - - -
26/01:00am 10.3 WSW 5 5 - - 0.0 - - - - - - -
26/12:30am 10.4 W 3 3 - - 0.0 - - - - - - -
26/12:00am 10.6 WSW 3 4 - - 0.0 - - - - - - -
 
Date/Time
CST
Temp

°C
Wind Pressure Rain
since 9am
mm
Weather Cloud Vis
km
Sea
Height
m
Swell
Dir
 
Speed
knots
Gust
knots
hPa Trend Height
m
Period
s
Dir
25/11:30pm 10.6 SW 3 4 - - 0.0 - - - - - - -
25/11:00pm 10.5 WSW 4 5 - - 0.0 - - - - - - -
25/10:30pm 10.8 WSW 5 7 - - 0.0 - - - - - - -
25/10:00pm 10.8 WSW 5 6 - - 0.0 - - - - - - -
25/09:30pm 9.6 SW 5 6 - - 0.0 - - - - - - -
25/09:00pm 9.6 SW 5 6 - - 0.0 - - - - - - -
25/08:30pm 10.1 WNW 3 4 - - 0.0 - - - - - - -
25/08:00pm 10.3 WSW 3 3 - - 0.0 - - - - - - -
25/07:30pm 10.6 S 4 5 - - 0.0 - - - - - - -
25/07:00pm 11.4 S 3 5 - - 0.0 - - - - - - -
25/06:30pm 11.8 S 5 6 - - 0.0 - - - - - - -
25/06:00pm 11.8 S 3 4 - - 0.0 - - - - - - -
25/05:30pm 12.3 SSW 5 7 - - 0.0 - - - - - - -
25/05:00pm 12.8 SW 7 9 - - 0.0 - - - - - - -
25/04:30pm 12.9 S 7 9 - - 0.0 - - - - - - -
25/04:00pm 13.2 SSW 10 14 - - 0.0 - - - - - - -
25/03:30pm 12.9 SW 9 13 - - 0.0 - - - - - - -
25/03:00pm 13.9 WNW 10 13 - - 0.0 - - - - - - -
25/02:30pm 13.9 NNW 13 18 - - 0.0 - - - - - - -
25/02:00pm 14.0 NNW 12 15 - - 0.0 - - - - - - -
25/01:30pm 14.2 NNW 10 13 - - 0.0 - - - - - - -
25/01:00pm 14.1 NNW 12 17 - - 0.0 - - - - - - -
25/12:30pm 14.0 NNW 10 16 - - 0.0 - - - - - - -
25/12:00pm 14.0 NNW 11 16 - - 0.0 - - - - - - -
25/11:30am 13.9 NNW 13 18 - - 0.0 - - - - - - -
25/11:00am 13.7 NNW 13 20 - - 0.0 - - - - - - -
25/10:30am 13.7 NNW 14 20 - - 0.0 - - - - - - -
25/10:00am 13.6 NNW 13 19 - - 0.0 - - - - - - -
25/09:30am 13.3 N 13 19 - - 0.0 - - - - - - -
25/09:00am 13.6 N 12 19 - - 0.0 - - - - - - -
25/08:30am 13.5 NNW 13 17 - - 0.0 - - - - - - -
25/08:00am 13.0 N 14 20 - - 0.0 - - - - - - -
25/07:30am 12.7 NNW 10 15 - - 0.0 - - - - - - -
25/07:00am 12.8 NNW 13 19 - - 0.0 - - - - - - -
25/06:30am 13.0 N 8 11 - - 0.0 - - - - - - -
25/06:00am 12.8 N 9 12 - - 0.0 - - - - - - -
25/05:30am 13.1 NNW 10 13 - - 0.0 - - - - - - -
25/05:00am 13.4 N 11 16 - - 0.0 - - - - - - -
25/04:30am 13.8 NNW 11 15 - - 0.0 - - - - - - -
25/04:00am 13.2 N 9 13 - - 0.0 - - - - - - -
25/03:30am 12.9 NNW 10 13 - - 0.0 - - - - - - -
25/03:00am 12.9 N 13 17 - - 0.0 - - - - - - -
25/02:30am 12.9 N 10 13 - - 0.0 - - - - - - -
25/02:00am 13.0 N 15 22 - - 0.0 - - - - - - -
25/01:30am 13.8 NNW 17 27 - - 0.0 - - - - - - -
25/01:22am 14.4 NNW 17 27 - - 0.0 - - - - - - -
25/01:00am 15.4 NNW 15 21 - - 0.0 - - - - - - -
25/12:30am 15.2 NNW 14 21 - - 0.0 - - - - - - -
25/12:00am 15.2 N 11 18 - - 0.0 - - - - - - -
 
Date/Time
CST
Temp

°C
Wind Pressure Rain
since 9am
mm
Weather Cloud Vis
km
Sea
Height
m
Swell
Dir
 
Speed
knots
Gust
knots
hPa Trend Height
m
Period
s
Dir
24/11:30pm 15.0 N 11 16 - - 0.0 - - - - - - -
24/11:00pm 14.2 N 10 13 - - 0.0 - - - - - - -
24/10:30pm 13.9 N 8 10 - - 0.0 - - - - - - -
24/10:00pm 14.3 N 9 12 - - 0.0 - - - - - - -
24/09:30pm 14.7 N 11 16 - - 0.0 - - - - - - -
24/09:00pm 14.7 N 9 13 - - 0.0 - - - - - - -
24/08:30pm 14.6 N 9 13 - - 0.0 - - - - - - -
24/08:00pm 13.9 N 8 11 - - 0.0 - - - - - - -
24/07:30pm 13.5 NNE 7 9 - - 0.0 - - - - - - -
24/07:00pm 13.1 N 7 9 - - 0.0 - - - - - - -
24/06:30pm 12.6 N 6 8 - - 0.0 - - - - - - -
24/06:00pm 13.1 N 7 8 - - 0.0 - - - - - - -
24/05:30pm 13.3 N 7 9 - - 0.0 - - - - - - -
24/05:00pm 14.2 N 8 12 - - 0.0 - - - - - - -
24/04:30pm 15.1 N 10 13 - - 0.0 - - - - - - -
24/04:00pm 16.1 N 12 18 - - 0.0 - - - - - - -
24/03:30pm 16.6 N 11 17 - - 0.0 - - - - - - -
24/03:00pm 17.0 N 12 17 - - 0.0 - - - - - - -
24/02:30pm 17.2 N 12 19 - - 0.0 - - - - - - -
24/02:00pm 17.2 N 11 15 - - 0.0 - - - - - - -
24/01:30pm 16.9 N 12 20 - - 0.0 - - - - - - -
24/01:00pm 16.8 N 13 17 - - 0.0 - - - - - - -
24/12:30pm 16.5 NNW 14 19 - - 0.0 - - - - - - -
24/12:00pm 17.1 NNW 13 17 - - 0.0 - - - - - - -
24/11:30am 15.7 N 10 13 - - 0.0 - - - - - - -
24/11:00am 15.6 N 15 20 - - 0.0 - - - - - - -
24/10:30am 15.8 N 12 18 - - 0.0 - - - - - - -
24/10:00am 15.1 N 11 15 - - 0.0 - - - - - - -
24/09:30am 14.5 N 9 12 - - 0.0 - - - - - - -
24/09:00am 13.3 N 5 6 - - 0.0 - - - - - - -
24/08:30am 11.9 NNE 4 4 - - 0.0 - - - - - - -
24/08:00am 11.0 N 5 6 - - 0.0 - - - - - - -
24/07:30am 10.9 N 4 4 - - 0.0 - - - - - - -
24/07:00am 11.5 N 4 6 - - 0.0 - - - - - - -
24/06:30am 11.5 N 3 4 - - 0.0 - - - - - - -
24/06:00am 11.0 N 6 6 - - 0.0 - - - - - - -
24/05:30am 9.9 N 4 5 - - 0.0 - - - - - - -
24/05:00am 9.9 N 5 6 - - 0.0 - - - - - - -
24/04:30am 10.5 N 5 6 - - 0.0 - - - - - - -
24/04:00am 10.5 N 5 5 - - 0.0 - - - - - - -
24/03:30am 10.2 N 5 5 - - 0.0 - - - - - - -
24/03:00am 9.8 NNE 4 5 - - 0.0 - - - - - - -
24/02:30am 9.4 NNW 2 3 - - 0.0 - - - - - - -

Other Formats:

Comma delimited format used in spreadsheet applications
http://www.bom.gov.au/fwo/IDS60701/IDS60701.94807.axf

JavaScript Object Notation format (JSON) in row-major order
http://www.bom.gov.au/fwo/IDS60701/IDS60701.94807.json